KFRR/FRR METAR and TAF weather

Enter ICAO airport designator
Station Type Date Time Source
KFRR METAR 2023/01/30 11:35 UTC NOAA

KFRR 301135Z AUTO 00000KT 10SM CLR 03/02 A3014 RMK AO1


Station Type Date Time Source
KFRR Decoded METAR 2023/01/30 11:35 UTC NOAA

Station name not available
Jan 30, 2023 - 06:35 AM EST / 2023.01.30 1135 UTC
Wind: Calm:0
Visibility: 10 mile(s):0
Sky conditions: clear
Temperature: 37 F (3 C)
Dew Point: 35 F (2 C)
Relative Humidity: 93%
Pressure (altimeter): 30.14 in. Hg (1020 hPa)
ob: KFRR 301135Z AUTO 00000KT 10SM CLR 03/02 A3014 RMK AO1
cycle: 11

Station Type Date Time Source
KFRR TAF UTC NOAA

Error!

Example: see airport list